createdAt,value
2018-09-01T00:16:13.561Z,14.60
2018-09-01T00:18:58.872Z,14.60
2018-09-01T00:21:51.025Z,14.60
2018-09-01T00:27:27.504Z,14.60
2018-09-01T00:30:11.336Z,14.60
2018-09-01T00:33:00.541Z,14.60
2018-09-01T00:35:43.112Z,14.60
2018-09-01T00:38:28.879Z,14.60
2018-09-01T00:41:03.086Z,14.60
2018-09-01T00:43:35.701Z,14.60
2018-09-01T00:46:21.773Z,14.60
2018-09-01T00:49:09.960Z,14.60
2018-09-01T00:51:49.658Z,14.60
2018-09-01T00:54:29.208Z,14.50
2018-09-01T00:57:03.145Z,14.60
2018-09-01T00:59:37.439Z,14.60
2018-09-01T01:02:09.321Z,14.60
2018-09-01T01:04:39.217Z,14.60
2018-09-01T01:07:24.003Z,14.60
2018-09-01T01:09:54.655Z,14.60
2018-09-01T01:12:25.242Z,14.60
2018-09-01T01:15:03.610Z,14.60
2018-09-01T02:36:07.841Z,14.50
2018-09-01T03:12:33.053Z,14.50
2018-09-01T03:18:16.137Z,14.50
2018-09-01T03:33:16.414Z,14.40
2018-09-01T04:14:06.447Z,14.70
2018-09-01T04:31:21.985Z,14.90
2018-09-01T04:37:09.566Z,15.00
2018-09-01T04:39:56.766Z,15.00
2018-09-01T04:42:33.159Z,15.00
2018-09-01T04:48:13.875Z,15.00
2018-09-01T05:01:00.288Z,15.10
2018-09-01T05:03:50.457Z,15.20
2018-09-01T05:06:27.841Z,15.20
2018-09-01T05:24:20.182Z,15.50
2018-09-01T05:27:04.284Z,15.50
2018-09-01T05:39:07.344Z,15.70
2018-09-01T05:44:43.683Z,15.70
2018-09-01T05:47:33.422Z,15.70
2018-09-01T05:50:07.069Z,15.70
2018-09-01T05:52:46.160Z,15.70
2018-09-01T06:08:36.374Z,15.80
2018-09-01T06:11:12.270Z,15.90
2018-09-01T06:23:18.687Z,16.10
2018-09-01T06:25:52.721Z,16.10
2018-09-01T06:28:27.052Z,16.20
2018-09-01T06:31:01.928Z,16.20
2018-09-01T06:33:35.212Z,16.20
2018-09-01T06:36:22.686Z,16.30
2018-09-01T06:38:55.256Z,16.30
2018-09-01T06:41:26.928Z,16.30
2018-09-01T06:49:57.220Z,16.20
2018-09-01T06:52:28.877Z,16.20
2018-09-01T06:54:59.130Z,16.30
2018-09-01T06:57:29.551Z,16.40
2018-09-01T07:00:01.852Z,16.50
2018-09-01T07:02:44.199Z,16.50
2018-09-01T07:05:31.819Z,16.60
2018-09-01T07:08:05.920Z,16.60
2018-09-01T07:10:39.735Z,16.60
2018-09-01T07:13:10.598Z,16.60
2018-09-01T07:15:40.497Z,16.60
2018-09-01T07:18:10.152Z,16.60
2018-09-01T07:20:40.264Z,16.60
2018-09-01T07:23:12.783Z,16.60
2018-09-01T07:25:44.301Z,16.60
2018-09-01T07:28:16.183Z,16.80
2018-09-01T07:30:48.102Z,16.90
2018-09-01T07:33:19.423Z,17.00
2018-09-01T07:35:51.105Z,17.10
2018-09-01T07:38:23.709Z,17.20
2018-09-01T07:40:54.468Z,17.20
2018-09-01T07:43:26.977Z,17.30
2018-09-01T07:46:10.922Z,17.30
2018-09-01T07:48:43.551Z,17.30
2018-09-01T07:51:22.061Z,17.50
2018-09-01T07:53:52.496Z,17.60
2018-09-01T07:59:17.475Z,17.90
2018-09-01T08:01:49.372Z,17.80
2018-09-01T08:04:27.478Z,17.80
2018-09-01T08:07:50.984Z,17.80
2018-09-01T08:10:31.622Z,17.90
2018-09-01T08:13:14.652Z,17.90
2018-09-01T08:15:52.860Z,18.10
2018-09-01T08:18:27.398Z,18.30
2018-09-01T08:21:04.727Z,18.40
2018-09-01T08:23:36.510Z,18.20
2018-09-01T08:26:11.321Z,18.10
2018-09-01T08:31:34.516Z,18.10
2018-09-01T08:34:07.620Z,18.40
2018-09-01T08:42:55.291Z,18.50
2018-09-01T08:45:28.913Z,18.60
2018-09-01T08:48:06.514Z,18.70
2018-09-01T08:50:40.057Z,18.90
2018-09-01T08:53:34.995Z,18.90
2018-09-01T09:11:56.138Z,18.90
2018-09-01T09:14:28.963Z,19.30
2018-09-01T09:17:09.694Z,19.50
2018-09-01T09:19:41.347Z,19.50
2018-09-01T09:22:11.996Z,19.50
2018-09-01T09:33:22.479Z,19.30
2018-09-01T09:38:33.476Z,19.20
2018-09-01T09:41:14.722Z,19.40
2018-09-01T09:43:46.303Z,19.70
2018-09-01T09:49:25.585Z,20.00
2018-09-01T09:51:59.265Z,19.70
2018-09-01T09:54:40.048Z,19.50
2018-09-01T10:04:43.252Z,19.40
2018-09-01T10:07:14.941Z,19.10
2018-09-01T10:09:45.112Z,19.10
2018-09-01T10:12:16.166Z,19.10
2018-09-01T10:14:47.048Z,19.20
2018-09-01T10:17:17.468Z,19.40
2018-09-01T10:19:48.109Z,19.80
2018-09-01T10:25:32.381Z,20.00
2018-09-01T10:28:02.162Z,19.80
2018-09-01T10:30:33.385Z,19.60
2018-09-01T10:33:04.772Z,19.60
2018-09-01T10:35:34.357Z,19.80
2018-09-01T10:38:04.840Z,19.80
2018-09-01T10:40:34.750Z,19.90
2018-09-01T10:43:05.120Z,20.00
2018-09-01T10:48:46.307Z,20.20
2018-09-01T10:54:19.434Z,19.90
2018-09-01T10:56:49.447Z,20.00
2018-09-01T10:59:19.877Z,20.00
2018-09-01T11:02:00.872Z,20.10
2018-09-01T11:04:31.357Z,20.20
2018-09-01T11:07:01.290Z,20.30
2018-09-01T11:09:31.641Z,20.50
2018-09-01T11:14:43.388Z,20.70
2018-09-01T11:17:13.589Z,20.70
2018-09-01T11:19:44.079Z,20.70
2018-09-01T11:22:14.503Z,20.70
2018-09-01T11:24:44.368Z,20.50
2018-09-01T11:27:14.482Z,20.30
2018-09-01T11:29:46.857Z,20.20
2018-09-01T11:32:16.940Z,20.10
2018-09-01T11:34:47.463Z,20.00
2018-09-01T11:37:18.004Z,20.00
2018-09-01T11:39:49.133Z,20.00
2018-09-01T11:42:19.875Z,19.90
2018-09-01T11:44:50.758Z,19.90
2018-09-01T11:47:21.353Z,19.80
2018-09-01T11:49:51.592Z,19.80
2018-09-01T11:52:23.190Z,19.80
2018-09-01T11:55:01.304Z,19.80
2018-09-01T11:57:31.124Z,19.90
2018-09-01T12:00:00.847Z,20.00
2018-09-01T12:02:32.180Z,20.00
2018-09-01T12:05:02.273Z,20.00
2018-09-01T12:07:33.540Z,20.00
2018-09-01T12:10:02.832Z,20.10
2018-09-01T12:12:38.975Z,20.20
2018-09-01T12:15:10.340Z,20.10
2018-09-01T12:17:41.709Z,20.10
2018-09-01T12:20:12.860Z,20.20
2018-09-01T12:22:44.361Z,20.20
2018-09-01T12:25:15.826Z,20.10
2018-09-01T12:27:46.994Z,20.10
2018-09-01T12:30:16.211Z,20.00
2018-09-01T12:32:50.207Z,20.00
2018-09-01T12:35:21.480Z,20.00
2018-09-01T12:37:53.235Z,19.90
2018-09-01T12:40:23.827Z,20.00
2018-09-01T12:42:55.007Z,20.00
2018-09-01T12:45:25.279Z,20.00
2018-09-01T12:47:59.628Z,20.00
2018-09-01T12:50:40.758Z,20.10
2018-09-01T13:05:21.490Z,19.90
2018-09-01T13:10:49.686Z,20.10
2018-09-01T13:16:16.672Z,20.00
2018-09-01T13:18:51.812Z,20.00
2018-09-01T13:22:06.733Z,20.00
2018-09-01T13:24:36.688Z,20.10
2018-09-01T13:27:06.411Z,20.20
2018-09-01T13:29:36.828Z,20.30
2018-09-01T13:32:06.862Z,20.40
2018-09-01T13:34:36.996Z,20.60
2018-09-01T13:37:07.180Z,20.70
2018-09-01T13:39:38.644Z,20.60
2018-09-01T13:42:15.539Z,20.50
2018-09-01T13:44:45.648Z,20.30
2018-09-01T13:47:17.138Z,20.20
2018-09-01T13:49:48.184Z,20.20
2018-09-01T13:52:18.530Z,20.20
2018-09-01T13:54:48.084Z,20.10
2018-09-01T13:57:18.553Z,20.10
2018-09-01T13:59:49.276Z,20.10
2018-09-01T14:02:25.928Z,20.20
2018-09-01T14:04:56.406Z,20.20
2018-09-01T14:07:26.405Z,20.30
2018-09-01T14:09:55.908Z,20.30
2018-09-01T14:12:26.649Z,20.20
2018-09-01T14:14:56.939Z,20.20
2018-09-01T14:18:56.321Z,20.20
2018-09-01T14:21:26.494Z,20.30
2018-09-01T14:26:55.465Z,20.60
2018-09-01T14:29:26.821Z,20.40
2018-09-01T14:32:17.809Z,20.10
2018-09-01T14:34:52.836Z,20.00
2018-09-01T22:06:24.409Z,11.10
2018-09-01T22:48:46.775Z,10.60
2018-09-01T22:54:37.134Z,10.60
2018-09-01T22:57:25.999Z,10.50
2018-09-01T23:09:10.639Z,10.30
